KOLE

Cattaraugus County-Olean Airport

Olean, New York, USA
METAR KOLE 151935Z AUTO 28008G16KT 10SM OVC026 00/M03 A2954 RMK AO2
Observed Flight Rules
Feb-15 @ 19:35 UTC (12 minutes ago) Marginal Visual Flight Rules
Wind Visibility Clouds
280° at 8 knots
 Gusting to 16 knots
10 miles
  • Overcast at 2,600' AGL
Temperatures Readings
Current 0°C / 32°F
Dewpoint -3°C / 27°F
Humidity 80%
Altimeter 29.54" Hg
Pressure 1000.32 hPa
Elevation 651
METAR KOLE 151935Z AUTO 28008G16KT 10SM OVC026 00/M03 A2954 RMK AO2
Observed Flight Rules
Feb-15 @ 19:35 UTC
(12 minutes ago)
MVFR
Wind Visibility
280° at 8 knots
 Gusting to 16 knots
10 miles
Clouds
  • Overcast at 2,600' AGL
Temperature Dewpoint
0°C / 32°F -3°C / 27°F
Humidity Altimeter Pressure
80% 29.54" Hg 1000.32 hPa